createdAt,value
2019-01-25T00:00:53.970Z,99.90
2019-01-25T00:03:20.371Z,99.90
2019-01-25T00:05:47.875Z,99.90
2019-01-25T00:08:14.195Z,99.90
2019-01-25T00:10:41.685Z,99.90
2019-01-25T00:13:08.176Z,99.90
2019-01-25T00:15:34.590Z,99.90
2019-01-25T00:18:00.920Z,99.90
2019-01-25T00:20:27.336Z,99.90
2019-01-25T00:22:53.653Z,99.90
2019-01-25T00:25:20.023Z,99.90
2019-01-25T00:27:46.390Z,99.90
2019-01-25T00:30:17.499Z,99.90
2019-01-25T00:32:44.033Z,99.90
2019-01-25T00:35:10.450Z,99.90
2019-01-25T00:37:36.776Z,99.90
2019-01-25T00:40:12.624Z,99.90
2019-01-25T00:42:38.970Z,99.90
2019-01-25T00:45:07.038Z,99.90
2019-01-25T00:47:33.386Z,99.90
2019-01-25T00:49:59.872Z,99.90
2019-01-25T00:52:26.223Z,99.90
2019-01-25T00:54:52.588Z,99.90
2019-01-25T00:57:18.969Z,99.90
2019-01-25T00:59:45.346Z,99.90
2019-01-25T01:02:11.726Z,99.90
2019-01-25T01:04:38.092Z,99.90
2019-01-25T01:07:04.593Z,99.90
2019-01-25T01:09:31.004Z,99.90
2019-01-25T01:11:57.411Z,99.90
2019-01-25T01:14:23.786Z,99.90
2019-01-25T01:16:50.143Z,99.90
2019-01-25T01:19:16.516Z,99.90
2019-01-25T01:21:42.934Z,99.90
2019-01-25T01:24:09.302Z,99.90
2019-01-25T01:26:35.687Z,99.90
2019-01-25T01:29:02.164Z,99.90
2019-01-25T01:31:28.552Z,99.90
2019-01-25T01:33:54.932Z,99.90
2019-01-25T01:36:21.293Z,99.90
2019-01-25T01:38:47.621Z,99.90
2019-01-25T01:41:14.039Z,99.90
2019-01-25T01:43:40.364Z,99.90
2019-01-25T01:46:06.742Z,99.90
2019-01-25T01:48:33.080Z,99.90
2019-01-25T01:50:59.478Z,99.90
2019-01-25T01:53:25.866Z,99.90
2019-01-25T01:55:52.304Z,99.90
2019-01-25T01:58:18.682Z,99.90
2019-01-25T02:03:45.136Z,99.90
2019-01-25T02:06:11.475Z,99.90
2019-01-25T02:08:37.854Z,99.90
2019-01-25T02:11:04.344Z,99.90
2019-01-25T02:13:30.718Z,99.90
2019-01-25T02:15:57.145Z,99.90
2019-01-25T02:18:23.574Z,99.90
2019-01-25T02:20:49.937Z,99.90
2019-01-25T02:23:16.263Z,99.90
2019-01-25T02:25:42.674Z,99.90
2019-01-25T02:28:09.023Z,99.90
2019-01-25T02:30:36.575Z,99.90
2019-01-25T02:33:03.058Z,99.90
2019-01-25T02:35:29.513Z,99.90
2019-01-25T02:37:55.939Z,99.90
2019-01-25T02:40:22.872Z,99.90
2019-01-25T02:42:49.239Z,99.90
2019-01-25T02:45:15.617Z,99.90
2019-01-25T02:47:41.988Z,99.90
2019-01-25T02:50:11.009Z,99.90
2019-01-25T02:52:37.368Z,99.90
2019-01-25T02:55:04.735Z,99.90
2019-01-25T02:57:31.114Z,99.90
2019-01-25T02:59:57.441Z,99.90
2019-01-25T03:02:23.848Z,99.90
2019-01-25T03:04:50.235Z,99.90
2019-01-25T03:07:16.607Z,99.90
2019-01-25T03:09:42.994Z,99.90
2019-01-25T03:12:09.414Z,99.90
2019-01-25T03:14:35.849Z,99.90
2019-01-25T03:17:02.219Z,99.90
2019-01-25T03:19:28.590Z,99.90
2019-01-25T03:21:54.990Z,99.90
2019-01-25T03:24:21.288Z,99.90
2019-01-25T03:26:47.671Z,99.90
2019-01-25T03:29:14.114Z,99.90
2019-01-25T03:31:40.510Z,99.90
2019-01-25T03:34:06.889Z,99.90
2019-01-25T03:36:33.220Z,99.90
2019-01-25T03:38:59.650Z,99.90
2019-01-25T03:41:25.987Z,99.90
2019-01-25T03:43:52.353Z,99.90
2019-01-25T03:46:18.696Z,99.90
2019-01-25T03:48:45.120Z,99.90
2019-01-25T03:51:11.422Z,99.90
2019-01-25T03:53:37.860Z,99.90
2019-01-25T03:56:04.176Z,99.90
2019-01-25T03:58:30.633Z,99.90
2019-01-25T04:00:57.012Z,99.90
2019-01-25T04:03:23.370Z,99.90
2019-01-25T04:05:49.788Z,99.90
2019-01-25T04:08:16.124Z,99.90
2019-01-25T04:10:42.492Z,99.90
2019-01-25T04:13:08.811Z,99.90
2019-01-25T04:15:35.167Z,99.90
2019-01-25T04:18:01.547Z,99.90
2019-01-25T04:20:28.069Z,99.90
2019-01-25T04:22:54.399Z,99.90
2019-01-25T04:25:21.575Z,99.90
2019-01-25T04:27:48.017Z,99.90
2019-01-25T04:30:28.346Z,99.90
2019-01-25T04:32:54.700Z,99.90
2019-01-25T04:35:21.014Z,99.90
2019-01-25T04:37:47.412Z,99.90
2019-01-25T04:40:16.403Z,99.90
2019-01-25T04:42:42.880Z,99.90
2019-01-25T04:45:11.451Z,99.90
2019-01-25T04:47:37.762Z,99.90
2019-01-25T04:50:07.926Z,99.90
2019-01-25T04:52:34.228Z,99.90
2019-01-25T04:55:15.861Z,99.90
2019-01-25T04:57:42.204Z,99.90
2019-01-25T05:00:13.424Z,99.90
2019-01-25T05:02:39.809Z,99.90
2019-01-25T05:05:06.139Z,99.90
2019-01-25T05:07:32.505Z,99.90
2019-01-25T05:09:58.850Z,99.90
2019-01-25T05:12:25.158Z,99.90
2019-01-25T05:14:51.508Z,99.90
2019-01-25T05:17:17.943Z,99.90
2019-01-25T05:19:44.271Z,99.90
2019-01-25T05:22:10.642Z,99.90
2019-01-25T05:24:36.980Z,99.90
2019-01-25T05:27:03.304Z,99.90
2019-01-25T05:29:47.364Z,99.90
2019-01-25T05:32:13.710Z,99.90
2019-01-25T05:34:40.096Z,99.90
2019-01-25T05:37:08.793Z,99.90
2019-01-25T05:39:35.202Z,99.90
2019-01-25T05:42:02.526Z,99.90
2019-01-25T05:44:28.925Z,99.90
2019-01-25T05:46:55.248Z,99.90
2019-01-25T05:49:22.739Z,99.90
2019-01-25T05:51:49.301Z,99.90
2019-01-25T05:54:15.661Z,99.90
2019-01-25T05:56:42.140Z,99.90
2019-01-25T05:59:08.467Z,99.90
2019-01-25T06:01:36.782Z,99.90
2019-01-25T06:04:03.153Z,99.90
2019-01-25T06:06:29.614Z,99.90
2019-01-25T06:08:56.028Z,99.90
2019-01-25T06:11:22.360Z,99.90
2019-01-25T06:13:48.769Z,99.90
2019-01-25T06:16:15.105Z,99.90
2019-01-25T06:18:41.566Z,99.90
2019-01-25T06:21:07.912Z,99.90
2019-01-25T06:23:34.321Z,99.90
2019-01-25T06:26:00.683Z,99.90
2019-01-25T06:28:27.036Z,99.90
2019-01-25T06:30:53.530Z,99.90
2019-01-25T06:33:19.963Z,99.90
2019-01-25T06:35:46.418Z,99.90
2019-01-25T06:38:12.818Z,99.90
2019-01-25T06:40:39.212Z,99.90
2019-01-25T06:43:05.702Z,99.90
2019-01-25T06:45:32.082Z,99.90
2019-01-25T06:47:58.470Z,99.90
2019-01-25T06:50:24.867Z,99.90
2019-01-25T06:52:51.235Z,99.90
2019-01-25T06:55:17.577Z,99.90
2019-01-25T06:57:48.385Z,99.90
2019-01-25T07:00:18.024Z,99.90
2019-01-25T07:02:44.653Z,99.90
2019-01-25T07:05:11.109Z,99.90
2019-01-25T07:07:38.742Z,99.90
2019-01-25T07:10:09.921Z,99.90
2019-01-25T07:12:36.431Z,99.90
2019-01-25T07:15:05.661Z,99.90
2019-01-25T07:17:32.091Z,99.90
2019-01-25T07:19:58.432Z,99.90
2019-01-25T07:22:24.858Z,99.90
2019-01-25T07:24:57.159Z,99.90
2019-01-25T07:27:19.494Z,99.90
2019-01-25T07:29:45.984Z,99.90
2019-01-25T07:32:12.497Z,99.90
2019-01-25T07:34:39.093Z,99.90
2019-01-25T07:37:05.592Z,99.90
2019-01-25T07:39:32.030Z,99.90
2019-01-25T07:41:59.424Z,99.90
2019-01-25T07:44:26.804Z,99.90
2019-01-25T07:46:53.289Z,99.90
2019-01-25T07:49:19.724Z,99.90
2019-01-25T07:51:46.253Z,99.90
2019-01-25T07:54:12.711Z,99.90
2019-01-25T07:56:39.069Z,99.90
2019-01-25T07:59:05.827Z,99.90
2019-01-25T08:01:32.215Z,99.90
2019-01-25T08:03:58.738Z,99.90
2019-01-25T08:06:25.052Z,99.90
2019-01-25T08:08:51.450Z,99.90
2019-01-25T08:11:17.803Z,99.90
2019-01-25T08:13:44.243Z,99.90
2019-01-25T08:16:10.826Z,99.90
2019-01-25T08:18:37.386Z,99.90
2019-01-25T08:21:03.712Z,99.90
2019-01-25T08:23:30.107Z,99.90
2019-01-25T08:25:56.544Z,99.90
2019-01-25T08:28:22.953Z,99.90
2019-01-25T08:30:49.343Z,99.90
2019-01-25T08:33:15.729Z,99.90
2019-01-25T08:35:42.155Z,99.90
2019-01-25T08:38:08.635Z,99.90
2019-01-25T08:40:35.086Z,99.90
2019-01-25T08:43:01.440Z,99.90
2019-01-25T08:45:27.853Z,99.90
2019-01-25T08:47:54.286Z,99.90
2019-01-25T08:50:23.607Z,99.90
2019-01-25T08:52:49.960Z,99.90
2019-01-25T08:55:16.441Z,99.90
2019-01-25T08:57:42.882Z,99.90
2019-01-25T09:00:12.719Z,99.90
2019-01-25T09:02:39.195Z,99.90
2019-01-25T09:05:07.857Z,99.90
2019-01-25T09:07:34.312Z,99.90
2019-01-25T09:10:00.649Z,99.90
2019-01-25T09:12:27.207Z,99.90
2019-01-25T09:14:54.200Z,99.90
2019-01-25T09:17:20.672Z,99.90
2019-01-25T09:19:47.077Z,99.90
2019-01-25T09:22:13.564Z,99.90
2019-01-25T09:24:39.944Z,99.90
2019-01-25T09:27:06.406Z,99.90
2019-01-25T09:29:32.988Z,99.90
2019-01-25T09:31:59.388Z,99.90
2019-01-25T09:34:25.789Z,99.90
2019-01-25T09:36:52.158Z,99.90
2019-01-25T09:39:18.698Z,99.50
2019-01-25T09:41:45.177Z,99.90
2019-01-25T09:44:11.640Z,99.90
2019-01-25T09:46:38.091Z,99.80
2019-01-25T09:49:04.575Z,99.90
2019-01-25T09:51:30.958Z,99.90
2019-01-25T09:53:57.324Z,99.80
2019-01-25T09:56:23.760Z,99.90
2019-01-25T09:58:50.108Z,99.90
2019-01-25T10:01:16.541Z,99.70
2019-01-25T10:03:42.896Z,99.80
2019-01-25T10:06:09.260Z,99.80
2019-01-25T10:08:35.666Z,99.90
2019-01-25T10:11:02.074Z,99.40
2019-01-25T10:13:28.498Z,99.90
2019-01-25T10:15:54.895Z,99.90
2019-01-25T10:18:24.829Z,99.90
2019-01-25T10:20:49.594Z,99.90
2019-01-25T10:23:16.138Z,99.90
2019-01-25T10:25:42.545Z,99.90
2019-01-25T10:28:09.000Z,99.90
2019-01-25T10:30:35.423Z,99.90
2019-01-25T10:33:02.136Z,98.70
2019-01-25T10:35:28.603Z,99.10
2019-01-25T10:37:55.058Z,98.70
2019-01-25T10:40:22.295Z,98.20
2019-01-25T10:42:53.163Z,98.70
2019-01-25T10:45:19.679Z,98.00
2019-01-25T10:47:46.119Z,98.40
2019-01-25T10:50:12.490Z,98.70
2019-01-25T10:52:38.918Z,98.60
2019-01-25T10:55:07.975Z,98.50
2019-01-25T10:57:34.469Z,97.40
2019-01-25T11:00:01.183Z,98.50
2019-01-25T11:02:27.675Z,98.10
2019-01-25T11:04:54.207Z,98.10
2019-01-25T11:07:20.584Z,97.90
2019-01-25T11:09:47.044Z,98.40
2019-01-25T11:12:13.496Z,98.70
2019-01-25T11:14:40.041Z,99.70
2019-01-25T11:17:06.465Z,98.40
2019-01-25T11:19:32.913Z,98.70
2019-01-25T11:21:59.278Z,98.40
2019-01-25T11:24:25.718Z,99.00
2019-01-25T11:26:52.102Z,99.60
2019-01-25T11:29:18.509Z,99.70
2019-01-25T11:31:44.920Z,99.80
2019-01-25T11:34:11.346Z,99.60
2019-01-25T11:36:37.874Z,99.30
2019-01-25T11:39:06.730Z,99.20
2019-01-25T11:41:33.073Z,98.60
2019-01-25T11:43:59.509Z,99.60
2019-01-25T11:46:25.909Z,99.80
2019-01-25T11:48:52.399Z,99.90
2019-01-25T11:51:19.930Z,99.70
2019-01-25T11:53:46.589Z,99.90
2019-01-25T11:56:13.118Z,99.90
2019-01-25T11:58:39.642Z,99.90
2019-01-25T12:01:06.095Z,99.90
2019-01-25T12:03:33.479Z,99.90
2019-01-25T12:06:00.028Z,99.90
2019-01-25T12:08:26.515Z,99.90
2019-01-25T12:10:52.948Z,99.90
2019-01-25T12:13:19.377Z,99.90
2019-01-25T12:15:45.921Z,99.90
2019-01-25T12:18:12.715Z,99.90
2019-01-25T12:20:39.236Z,99.60
2019-01-25T12:23:05.611Z,99.30
2019-01-25T12:25:32.290Z,99.90
2019-01-25T12:27:59.129Z,99.90
2019-01-25T12:30:38.175Z,98.90
2019-01-25T12:33:05.755Z,99.10
2019-01-25T12:35:35.579Z,99.50
2019-01-25T12:38:02.124Z,99.00
2019-01-25T12:40:28.586Z,99.40
2019-01-25T12:42:54.962Z,98.90
2019-01-25T12:45:26.396Z,98.00
2019-01-25T12:47:52.848Z,98.40
2019-01-25T12:50:31.971Z,98.00
2019-01-25T12:52:59.537Z,97.60
2019-01-25T12:55:26.011Z,97.10
2019-01-25T12:57:52.409Z,96.80
2019-01-25T13:00:20.838Z,96.80
2019-01-25T13:02:47.402Z,97.20
2019-01-25T13:05:15.956Z,96.90
2019-01-25T13:07:42.708Z,96.80
2019-01-25T13:10:12.109Z,97.50
2019-01-25T13:12:38.644Z,97.70
2019-01-25T13:15:07.135Z,98.60
2019-01-25T13:17:33.536Z,97.60
2019-01-25T13:19:59.899Z,98.20
2019-01-25T13:22:26.310Z,98.90
2019-01-25T13:24:52.683Z,98.90
2019-01-25T13:27:19.084Z,99.20
2019-01-25T13:29:45.464Z,99.40
2019-01-25T13:32:14.620Z,99.20
2019-01-25T13:34:40.073Z,99.40
2019-01-25T13:37:06.601Z,99.50
2019-01-25T13:39:32.944Z,99.70
2019-01-25T13:41:59.317Z,99.60
2019-01-25T13:44:30.071Z,99.70
2019-01-25T13:46:53.922Z,99.50
2019-01-25T13:49:20.326Z,99.60
2019-01-25T13:51:46.768Z,99.30
2019-01-25T13:54:13.166Z,99.90
2019-01-25T13:56:39.542Z,99.60
2019-01-25T13:59:06.013Z,99.80
2019-01-25T14:01:34.688Z,99.90
2019-01-25T14:04:00.650Z,99.90
2019-01-25T14:06:27.185Z,99.90
2019-01-25T14:08:53.607Z,99.90
2019-01-25T14:11:19.979Z,99.90
2019-01-25T14:13:46.974Z,99.90
2019-01-25T14:16:13.638Z,99.90
2019-01-25T14:18:44.756Z,99.90
2019-01-25T14:21:08.245Z,99.90
2019-01-25T14:23:34.666Z,99.90
2019-01-25T14:26:01.132Z,99.90
2019-01-25T14:28:27.499Z,99.90
2019-01-25T14:30:54.038Z,99.90
2019-01-25T14:33:24.151Z,99.90
2019-01-25T14:35:50.684Z,99.90
2019-01-25T14:41:14.314Z,99.90
2019-01-25T14:43:40.978Z,99.90
2019-01-25T14:46:07.587Z,99.90
2019-01-25T14:48:38.091Z,99.90
2019-01-25T14:51:02.194Z,99.90
2019-01-25T14:53:28.758Z,99.90
2019-01-25T14:58:44.205Z,99.90
2019-01-25T15:01:10.687Z,99.90
2019-01-25T15:03:37.106Z,99.90
2019-01-25T15:06:03.749Z,99.90
2019-01-25T15:08:30.048Z,99.90
2019-01-25T15:10:56.565Z,99.90
2019-01-25T15:13:22.936Z,99.90
2019-01-25T15:15:49.415Z,99.90
2019-01-25T15:18:15.802Z,99.90
2019-01-25T15:20:43.029Z,99.90
2019-01-25T15:23:09.451Z,99.90
2019-01-25T15:25:36.488Z,99.90
2019-01-25T15:28:03.177Z,99.90
2019-01-25T15:30:29.681Z,99.90
2019-01-25T15:32:56.186Z,99.90
2019-01-25T15:35:23.409Z,99.90
2019-01-25T15:37:50.644Z,99.90
2019-01-25T15:40:18.774Z,99.90
2019-01-25T15:42:45.326Z,99.90
2019-01-25T15:45:14.163Z,99.90
2019-01-25T15:47:40.577Z,99.90
2019-01-25T15:50:10.505Z,99.90
2019-01-25T15:52:37.262Z,99.90
2019-01-25T15:55:06.850Z,99.90
2019-01-25T15:57:33.481Z,99.90
2019-01-25T16:00:00.314Z,99.90
2019-01-25T16:02:26.736Z,99.90
2019-01-25T16:04:53.221Z,99.90
2019-01-25T16:07:19.607Z,99.90
2019-01-25T16:09:46.228Z,99.90
2019-01-25T16:12:12.761Z,99.90
2019-01-25T16:14:39.174Z,99.90
2019-01-25T16:17:05.638Z,99.90
2019-01-25T16:19:32.381Z,99.90
2019-01-25T16:21:58.822Z,99.90
2019-01-25T16:24:25.285Z,99.90
2019-01-25T16:26:53.238Z,99.90
2019-01-25T16:29:19.814Z,99.90
2019-01-25T16:31:48.023Z,99.90
2019-01-25T16:34:14.778Z,99.90
2019-01-25T16:36:41.231Z,99.90
2019-01-25T16:39:07.603Z,99.90
2019-01-25T16:41:34.696Z,99.90
2019-01-25T16:44:01.151Z,99.90
2019-01-25T16:46:27.610Z,99.90
2019-01-25T16:48:53.964Z,99.90
2019-01-25T16:51:20.653Z,99.90
2019-01-25T16:53:47.087Z,99.90
2019-01-25T16:56:13.424Z,99.90
2019-01-25T16:58:39.893Z,99.90
2019-01-25T17:01:06.309Z,99.90
2019-01-25T17:03:32.765Z,99.90
2019-01-25T17:05:59.104Z,99.90
2019-01-25T17:08:25.616Z,99.90
2019-01-25T17:10:51.972Z,99.90
2019-01-25T17:13:18.363Z,99.90
2019-01-25T17:15:44.742Z,99.90
2019-01-25T17:18:11.199Z,99.90
2019-01-25T17:20:37.620Z,99.90
2019-01-25T17:23:04.918Z,99.90
2019-01-25T17:25:31.547Z,99.90
2019-01-25T17:27:57.999Z,99.90
2019-01-25T17:30:26.443Z,99.90
2019-01-25T17:32:54.298Z,99.90
2019-01-25T17:35:20.689Z,99.90
2019-01-25T17:37:49.892Z,99.90
2019-01-25T17:40:19.118Z,99.90
2019-01-25T17:42:45.669Z,99.90
2019-01-25T17:45:12.669Z,99.90
2019-01-25T17:47:39.411Z,99.90
2019-01-25T17:50:10.806Z,99.90
2019-01-25T17:52:37.273Z,99.90
2019-01-25T17:55:06.719Z,99.90
2019-01-25T17:57:33.275Z,99.90
2019-01-25T17:59:59.713Z,99.90
2019-01-25T18:02:26.261Z,99.90
2019-01-25T18:04:53.493Z,99.90
2019-01-25T18:07:19.910Z,99.90
2019-01-25T18:09:46.691Z,99.90
2019-01-25T18:12:13.047Z,99.90
2019-01-25T18:14:40.236Z,99.90
2019-01-25T18:17:07.600Z,99.90
2019-01-25T18:19:34.237Z,99.90
2019-01-25T18:22:00.750Z,99.90
2019-01-25T18:24:27.466Z,99.90
2019-01-25T18:26:54.599Z,99.90
2019-01-25T18:29:21.219Z,99.90
2019-01-25T18:31:48.544Z,99.90
2019-01-25T18:34:16.137Z,99.90
2019-01-25T18:36:43.492Z,99.90
2019-01-25T18:39:10.141Z,99.90
2019-01-25T18:41:37.076Z,99.90
2019-01-25T18:44:04.326Z,99.90
2019-01-25T18:46:30.907Z,99.90
2019-01-25T18:48:57.458Z,99.90
2019-01-25T18:51:24.814Z,99.90
2019-01-25T18:53:51.524Z,99.90
2019-01-25T18:56:18.994Z,99.90
2019-01-25T18:58:46.625Z,99.90
2019-01-25T19:01:13.476Z,99.90
2019-01-25T19:03:40.074Z,99.90
2019-01-25T19:06:06.648Z,99.90
2019-01-25T19:08:33.043Z,99.90
2019-01-25T19:10:59.456Z,99.90
2019-01-25T19:13:40.735Z,99.90
2019-01-25T19:16:20.692Z,99.90
2019-01-25T19:18:47.166Z,99.90
2019-01-25T19:21:13.619Z,99.90
2019-01-25T19:23:40.046Z,99.90
2019-01-25T19:26:06.656Z,99.90
2019-01-25T19:28:33.134Z,99.90
2019-01-25T19:30:59.526Z,99.90
2019-01-25T19:33:26.432Z,99.90
2019-01-25T19:35:52.933Z,99.90
2019-01-25T19:38:19.998Z,99.90
2019-01-25T19:40:46.513Z,99.90
2019-01-25T19:43:13.059Z,99.90
2019-01-25T19:45:39.999Z,99.90
2019-01-25T19:48:06.759Z,99.90
2019-01-25T19:50:33.179Z,99.90
2019-01-25T19:52:59.621Z,99.90
2019-01-25T19:55:29.806Z,99.90
2019-01-25T19:57:58.179Z,99.90
2019-01-25T20:00:33.579Z,99.90
2019-01-25T20:02:59.916Z,99.90
2019-01-25T20:05:28.693Z,99.90
2019-01-25T20:07:55.782Z,99.90
2019-01-25T20:10:22.952Z,99.90
2019-01-25T20:12:50.142Z,99.90
2019-01-25T20:15:21.345Z,99.90
2019-01-25T20:17:47.756Z,99.90
2019-01-25T20:20:22.607Z,99.90
2019-01-25T20:22:49.003Z,99.90
2019-01-25T20:25:16.135Z,99.90
2019-01-25T20:27:43.751Z,99.90
2019-01-25T20:30:14.598Z,99.90
2019-01-25T20:32:41.855Z,99.90
2019-01-25T20:35:12.038Z,99.90
2019-01-25T20:37:38.861Z,99.90
2019-01-25T20:40:09.228Z,99.90
2019-01-25T20:42:36.655Z,99.90
2019-01-25T20:45:07.259Z,99.90
2019-01-25T20:47:34.522Z,99.90
2019-01-25T20:50:01.965Z,99.90
2019-01-25T20:52:29.275Z,99.90
2019-01-25T20:54:56.821Z,99.90
2019-01-25T20:57:23.757Z,99.90
2019-01-25T20:59:50.468Z,99.90
2019-01-25T21:02:17.717Z,99.90
2019-01-25T21:04:45.704Z,99.90
2019-01-25T21:07:13.896Z,99.90
2019-01-25T21:09:41.459Z,99.90
2019-01-25T21:12:08.962Z,99.90
2019-01-25T21:14:36.370Z,99.90
2019-01-25T21:17:03.250Z,99.90
2019-01-25T21:19:30.626Z,99.90
2019-01-25T21:21:57.801Z,99.90
2019-01-25T21:24:25.378Z,99.90
2019-01-25T21:26:54.292Z,99.90
2019-01-25T21:29:21.723Z,99.90
2019-01-25T21:31:49.675Z,99.90
2019-01-25T21:34:17.461Z,99.90
2019-01-25T21:36:45.639Z,99.90
2019-01-25T21:39:13.489Z,99.90
2019-01-25T21:41:41.440Z,99.90
2019-01-25T21:44:08.924Z,99.90
2019-01-25T21:46:40.337Z,99.90
2019-01-25T21:49:06.624Z,99.90
2019-01-25T21:51:34.772Z,99.90
2019-01-25T21:54:02.424Z,99.90
2019-01-25T21:56:29.786Z,99.90
2019-01-25T21:58:57.297Z,99.90
2019-01-25T22:01:24.741Z,99.90
2019-01-25T22:03:52.789Z,99.90
2019-01-25T22:06:21.208Z,99.90
2019-01-25T22:08:48.520Z,99.90
2019-01-25T22:11:16.147Z,99.90
2019-01-25T22:13:43.491Z,99.90
2019-01-25T22:16:10.924Z,99.90
2019-01-25T22:18:38.363Z,99.90
2019-01-25T22:21:06.008Z,99.90
2019-01-25T22:23:33.400Z,99.90
2019-01-25T22:26:00.642Z,99.90
2019-01-25T22:28:28.351Z,99.90
2019-01-25T22:30:55.929Z,99.90
2019-01-25T22:33:24.247Z,99.90
2019-01-25T22:35:51.710Z,99.90
2019-01-25T22:38:19.431Z,99.90
2019-01-25T22:40:47.329Z,99.90
2019-01-25T22:43:15.508Z,99.90
2019-01-25T22:45:43.224Z,99.90
2019-01-25T22:48:11.099Z,99.90
2019-01-25T22:50:38.591Z,99.90
2019-01-25T22:53:06.297Z,99.90
2019-01-25T22:55:33.762Z,99.90
2019-01-25T22:58:01.449Z,99.90
2019-01-25T23:00:46.340Z,99.90
2019-01-25T23:03:17.984Z,99.90
2019-01-25T23:06:20.827Z,99.90
2019-01-25T23:08:47.453Z,99.90
2019-01-25T23:11:14.146Z,99.90
2019-01-25T23:13:40.731Z,99.90
2019-01-25T23:16:07.218Z,99.90
2019-01-25T23:18:33.694Z,99.90
2019-01-25T23:21:00.302Z,99.90
2019-01-25T23:23:26.916Z,99.90
2019-01-25T23:25:53.576Z,99.90
2019-01-25T23:28:20.076Z,99.90
2019-01-25T23:30:46.610Z,99.90
2019-01-25T23:33:13.157Z,99.90
2019-01-25T23:35:39.633Z,99.50
2019-01-25T23:38:07.124Z,99.80
2019-01-25T23:40:33.641Z,99.30
2019-01-25T23:43:00.138Z,98.90
2019-01-25T23:45:26.604Z,98.70
2019-01-25T23:47:53.034Z,98.50
2019-01-25T23:50:19.483Z,98.30
2019-01-25T23:52:45.968Z,98.10
2019-01-25T23:55:12.447Z,97.90
2019-01-25T23:57:38.879Z,97.90
